createdAt,value
2022-08-30T00:02:04.254Z,86.96
2022-08-30T00:04:32.025Z,86.85
2022-08-30T00:07:00.763Z,86.54
2022-08-30T00:09:28.412Z,86.63
2022-08-30T00:11:56.085Z,86.54
2022-08-30T00:14:23.790Z,86.49
2022-08-30T00:16:52.072Z,86.61
2022-08-30T00:19:19.754Z,86.45
2022-08-30T00:21:47.419Z,86.33
2022-08-30T00:24:15.131Z,86.18
2022-08-30T00:26:42.792Z,85.92
2022-08-30T00:29:10.482Z,86.06
2022-08-30T00:31:38.186Z,86.63
2022-08-30T00:34:06.219Z,86.74
2022-08-30T00:36:34.064Z,86.96
2022-08-30T00:39:01.777Z,87.24
2022-08-30T00:41:29.974Z,87.62
2022-08-30T00:43:58.236Z,87.89
2022-08-30T00:46:28.778Z,87.82
2022-08-30T00:48:57.472Z,87.87
2022-08-30T00:51:26.878Z,88.01
2022-08-30T00:53:57.853Z,87.84
2022-08-30T00:56:26.793Z,87.89
2022-08-30T00:58:58.235Z,87.92
2022-08-30T01:01:27.261Z,87.81
2022-08-30T01:03:58.214Z,87.81
2022-08-30T01:06:32.630Z,88.15
2022-08-30T01:09:01.885Z,88.21
2022-08-30T01:11:30.433Z,87.78
2022-08-30T01:13:58.993Z,87.59
2022-08-30T01:16:27.300Z,87.50
2022-08-30T01:18:59.210Z,87.50
2022-08-30T01:21:50.853Z,87.47
2022-08-30T01:24:20.132Z,87.75
2022-08-30T01:26:47.864Z,87.50
2022-08-30T01:29:21.055Z,87.42
2022-08-30T01:31:48.817Z,87.67
2022-08-30T01:34:16.528Z,87.66
2022-08-30T01:36:46.761Z,87.83
2022-08-30T01:39:17.066Z,88.06
2022-08-30T01:41:45.355Z,88.24
2022-08-30T01:44:15.219Z,88.40
2022-08-30T01:46:47.317Z,88.55
2022-08-30T01:49:18.951Z,88.59
2022-08-30T01:52:00.666Z,88.60
2022-08-30T01:54:33.293Z,88.90
2022-08-30T01:57:06.800Z,89.21
2022-08-30T01:59:34.551Z,89.42
2022-08-30T02:02:02.225Z,89.63
2022-08-30T02:04:29.948Z,89.69
2022-08-30T02:06:57.693Z,90.05
2022-08-30T02:09:25.484Z,90.15
2022-08-30T02:11:53.146Z,90.52
2022-08-30T02:14:21.235Z,90.78
2022-08-30T02:16:49.527Z,91.05
2022-08-30T02:19:19.090Z,91.31
2022-08-30T02:21:46.814Z,91.35
2022-08-30T02:24:14.470Z,91.40
2022-08-30T02:26:42.376Z,91.38
2022-08-30T02:29:10.386Z,91.42
2022-08-30T02:31:38.058Z,91.69
2022-08-30T02:34:05.752Z,91.73
2022-08-30T02:36:33.445Z,91.99
2022-08-30T02:39:01.186Z,92.16
2022-08-30T02:41:28.884Z,92.07
2022-08-30T02:43:59.580Z,92.10
2022-08-30T02:46:33.320Z,92.19
2022-08-30T02:49:29.944Z,92.17
2022-08-30T02:51:50.827Z,92.27
2022-08-30T02:54:21.085Z,92.27
2022-08-30T02:56:49.994Z,92.40
2022-08-30T02:59:19.150Z,92.43
2022-08-30T03:01:46.956Z,92.51
2022-08-30T03:04:14.719Z,92.58
2022-08-30T03:06:42.589Z,92.68
2022-08-30T03:09:10.392Z,92.59
2022-08-30T03:11:38.698Z,92.68
2022-08-30T03:14:06.452Z,92.84
2022-08-30T03:16:34.426Z,92.90
2022-08-30T03:19:02.160Z,92.83
2022-08-30T03:21:29.900Z,92.99
2022-08-30T03:23:57.608Z,93.38
2022-08-30T03:26:25.325Z,93.76
2022-08-30T03:28:53.050Z,93.81
2022-08-30T03:31:20.942Z,93.83
2022-08-30T03:33:48.729Z,93.95
2022-08-30T03:36:16.381Z,94.29
2022-08-30T03:38:44.068Z,94.33
2022-08-30T03:41:12.462Z,94.34
2022-08-30T03:43:40.817Z,94.55
2022-08-30T03:46:10.050Z,94.48
2022-08-30T03:48:38.017Z,94.49
2022-08-30T03:51:06.190Z,94.57
2022-08-30T03:53:34.377Z,94.68
2022-08-30T03:56:02.050Z,94.78
2022-08-30T03:58:30.095Z,94.66
2022-08-30T04:00:57.957Z,94.54
2022-08-30T04:03:27.078Z,94.45
2022-08-30T04:05:56.012Z,94.36
2022-08-30T04:08:23.866Z,94.38
2022-08-30T04:10:52.168Z,94.41
2022-08-30T04:13:20.478Z,94.71
2022-08-30T04:15:48.582Z,94.84
2022-08-30T04:18:16.840Z,94.77
2022-08-30T04:20:44.879Z,94.82
2022-08-30T04:23:13.569Z,94.86
2022-08-30T04:25:43.065Z,94.85
2022-08-30T04:28:11.705Z,95.02
2022-08-30T04:30:41.510Z,95.03
2022-08-30T04:33:09.583Z,95.23
2022-08-30T04:35:37.379Z,95.41
2022-08-30T04:38:05.213Z,95.57
2022-08-30T04:40:32.983Z,95.61
2022-08-30T04:43:01.262Z,95.72
2022-08-30T04:45:29.047Z,95.97
2022-08-30T04:47:57.293Z,96.02
2022-08-30T04:50:25.131Z,95.99
2022-08-30T04:52:52.914Z,96.10
2022-08-30T04:55:20.804Z,96.01
2022-08-30T04:57:49.002Z,96.07
2022-08-30T05:00:17.481Z,96.46
2022-08-30T05:02:45.397Z,96.55
2022-08-30T05:05:31.886Z,96.56
2022-08-30T05:08:00.337Z,96.72
2022-08-30T05:10:28.667Z,96.68
2022-08-30T05:12:56.511Z,96.69
2022-08-30T05:15:24.371Z,96.57
2022-08-30T05:17:52.154Z,96.71
2022-08-30T05:20:19.964Z,96.64
2022-08-30T05:22:53.448Z,96.60
2022-08-30T05:25:28.519Z,96.55
2022-08-30T05:27:57.015Z,96.32
2022-08-30T05:30:25.867Z,96.40
2022-08-30T05:32:54.062Z,96.40
2022-08-30T05:35:25.760Z,96.38
2022-08-30T05:37:54.902Z,96.36
2022-08-30T05:40:24.457Z,96.28
2022-08-30T05:42:52.739Z,96.19
2022-08-30T05:45:20.597Z,96.08
2022-08-30T05:47:48.942Z,95.97
2022-08-30T05:50:16.988Z,96.01
2022-08-30T05:52:46.223Z,95.93
2022-08-30T05:55:14.112Z,95.85
2022-08-30T05:57:42.602Z,95.81
2022-08-30T06:00:15.334Z,95.85
2022-08-30T06:02:43.863Z,95.87
2022-08-30T06:05:14.349Z,95.52
2022-08-30T06:07:42.731Z,95.20
2022-08-30T06:10:10.722Z,95.18
2022-08-30T06:12:38.442Z,94.99
2022-08-30T06:15:06.696Z,95.01
2022-08-30T06:17:34.401Z,95.10
2022-08-30T06:20:02.227Z,94.56
2022-08-30T06:22:30.009Z,94.64
2022-08-30T06:24:58.322Z,94.45
2022-08-30T06:27:26.209Z,94.41
2022-08-30T06:29:54.629Z,94.49
2022-08-30T06:32:22.399Z,93.94
2022-08-30T06:34:50.581Z,94.03
2022-08-30T06:37:29.119Z,93.96
2022-08-30T06:39:59.128Z,94.20
2022-08-30T06:42:32.890Z,94.02
2022-08-30T06:45:10.611Z,93.96
2022-08-30T06:47:39.526Z,93.54
2022-08-30T06:50:08.003Z,93.34
2022-08-30T06:52:43.997Z,92.98
2022-08-30T06:55:16.606Z,92.50
2022-08-30T06:57:45.193Z,91.91
2022-08-30T07:00:15.937Z,91.86
2022-08-30T07:02:44.077Z,91.63
2022-08-30T07:05:18.531Z,91.77
2022-08-30T07:07:46.511Z,91.51
2022-08-30T07:10:15.431Z,91.54
2022-08-30T07:12:43.160Z,91.76
2022-08-30T07:15:11.191Z,91.62
2022-08-30T07:17:57.527Z,91.96
2022-08-30T07:20:25.256Z,91.85
2022-08-30T07:22:52.929Z,91.97
2022-08-30T07:25:20.674Z,91.55
2022-08-30T07:27:48.404Z,91.14
2022-08-30T07:30:16.078Z,90.76
2022-08-30T07:32:43.750Z,90.56
2022-08-30T07:35:11.586Z,90.52
2022-08-30T07:37:39.254Z,90.41
2022-08-30T07:40:07.341Z,90.26
2022-08-30T07:42:35.221Z,90.23
2022-08-30T07:45:04.358Z,90.28
2022-08-30T07:47:32.688Z,89.49
2022-08-30T07:50:01.838Z,89.79
2022-08-30T07:52:30.805Z,89.89
2022-08-30T07:55:00.023Z,89.18
2022-08-30T07:57:27.966Z,89.22
2022-08-30T07:59:55.766Z,89.49
2022-08-30T08:02:23.697Z,89.08
2022-08-30T08:04:51.799Z,88.45
2022-08-30T08:07:19.849Z,87.91
2022-08-30T08:09:47.529Z,87.29
2022-08-30T08:12:15.335Z,86.78
2022-08-30T08:14:43.187Z,86.43
2022-08-30T08:17:11.144Z,86.26
2022-08-30T08:19:38.909Z,85.50
2022-08-30T08:22:20.675Z,84.71
2022-08-30T08:24:49.763Z,84.39
2022-08-30T08:27:18.214Z,83.88
2022-08-30T08:29:45.928Z,83.61
2022-08-30T08:32:13.641Z,83.00
2022-08-30T08:34:42.552Z,82.67
2022-08-30T08:37:10.330Z,82.43
2022-08-30T08:39:38.174Z,81.69
2022-08-30T08:42:21.832Z,81.14
2022-08-30T08:45:10.168Z,80.30
2022-08-30T08:47:57.636Z,79.69
2022-08-30T08:50:29.498Z,80.05
2022-08-30T08:53:45.500Z,79.73
2022-08-30T08:56:17.914Z,79.25
2022-08-30T08:58:48.434Z,78.53
2022-08-30T09:01:21.464Z,78.49
2022-08-30T09:03:49.698Z,77.29
2022-08-30T09:06:36.270Z,77.13
2022-08-30T09:09:04.561Z,76.30
2022-08-30T09:11:35.097Z,76.91
2022-08-30T09:14:02.944Z,76.48
2022-08-30T09:16:48.166Z,76.35
2022-08-30T09:19:36.487Z,75.23
2022-08-30T09:22:16.449Z,74.72
2022-08-30T09:24:48.273Z,74.81
2022-08-30T09:27:23.777Z,73.69
2022-08-30T09:29:59.760Z,73.36
2022-08-30T09:32:32.575Z,73.38
2022-08-30T09:35:00.572Z,72.31
2022-08-30T09:37:36.888Z,72.35
2022-08-30T09:40:13.228Z,71.76
2022-08-30T09:42:41.367Z,71.24
2022-08-30T09:45:21.229Z,71.61
2022-08-30T09:47:49.121Z,71.25
2022-08-30T09:50:24.778Z,71.75
2022-08-30T09:53:23.508Z,71.21
2022-08-30T09:56:04.791Z,70.03
2022-08-30T09:59:06.976Z,70.60
2022-08-30T10:01:41.924Z,70.01
2022-08-30T10:04:35.529Z,70.71
2022-08-30T10:07:29.108Z,69.37
2022-08-30T10:10:19.432Z,69.98
2022-08-30T10:13:04.513Z,69.78
2022-08-30T10:15:40.977Z,69.14
2022-08-30T10:18:22.016Z,69.27
2022-08-30T10:20:58.721Z,68.71
2022-08-30T10:23:35.179Z,68.45
2022-08-30T10:26:22.226Z,68.81
2022-08-30T10:28:56.984Z,68.03
2022-08-30T10:31:47.226Z,68.00
2022-08-30T10:34:32.380Z,67.54
2022-08-30T10:37:22.534Z,66.59
2022-08-30T10:40:00.268Z,65.96
2022-08-30T10:42:39.408Z,65.97
2022-08-30T10:45:14.923Z,65.42
2022-08-30T10:48:06.474Z,64.85
2022-08-30T10:50:41.516Z,63.00
2022-08-30T10:53:10.031Z,63.94
2022-08-30T10:55:49.945Z,63.47
2022-08-30T10:58:19.499Z,63.09
2022-08-30T11:00:51.553Z,62.75
2022-08-30T11:03:49.955Z,62.69
2022-08-30T11:06:40.760Z,61.58
2022-08-30T11:09:44.918Z,62.29
2022-08-30T11:12:34.859Z,61.86
2022-08-30T11:15:18.970Z,61.61
2022-08-30T11:18:06.750Z,60.94
2022-08-30T11:20:44.755Z,61.79
2022-08-30T11:23:22.997Z,61.11
2022-08-30T11:25:57.550Z,61.42
2022-08-30T11:28:37.960Z,61.19
2022-08-30T11:31:23.985Z,60.27
2022-08-30T11:33:54.631Z,60.93
2022-08-30T11:36:37.825Z,61.07
2022-08-30T11:39:35.112Z,60.63
2022-08-30T11:42:29.381Z,60.73
2022-08-30T11:45:25.026Z,59.42
2022-08-30T11:47:56.399Z,59.71
2022-08-30T11:50:56.065Z,60.33
2022-08-30T11:53:45.808Z,59.03
2022-08-30T11:56:34.622Z,59.06
2022-08-30T11:59:07.104Z,58.64
2022-08-30T12:01:42.206Z,59.11
2022-08-30T12:04:18.107Z,58.38
2022-08-30T12:06:54.032Z,58.70
2022-08-30T12:09:24.688Z,57.65
2022-08-30T12:12:02.016Z,57.86
2022-08-30T12:14:49.894Z,57.66
2022-08-30T12:17:42.885Z,55.95
2022-08-30T12:20:24.859Z,55.97
2022-08-30T12:22:54.651Z,56.17
2022-08-30T12:25:30.162Z,56.52
2022-08-30T12:28:21.991Z,56.12
2022-08-30T12:30:51.252Z,55.62
2022-08-30T12:33:30.322Z,55.85
2022-08-30T12:36:04.254Z,54.09
2022-08-30T12:38:32.874Z,53.92
2022-08-30T12:41:02.665Z,54.77
2022-08-30T12:43:48.857Z,54.38
2022-08-30T12:46:19.192Z,53.12
2022-08-30T12:48:49.358Z,53.40
2022-08-30T12:51:37.956Z,53.45
2022-08-30T12:54:15.848Z,52.34
2022-08-30T12:56:55.281Z,52.88
2022-08-30T12:59:56.833Z,52.08
2022-08-30T13:02:48.887Z,51.43
2022-08-30T13:05:52.867Z,51.75
2022-08-30T13:08:23.923Z,52.14
2022-08-30T13:10:52.839Z,52.00
2022-08-30T13:13:30.021Z,52.49
2022-08-30T13:15:58.800Z,51.64
2022-08-30T13:18:33.505Z,52.22
2022-08-30T13:21:20.069Z,51.98
2022-08-30T13:23:48.343Z,51.73
2022-08-30T13:26:23.219Z,52.71
2022-08-30T13:28:58.119Z,52.44
2022-08-30T13:31:28.324Z,50.77
2022-08-30T13:33:59.297Z,50.08
2022-08-30T13:36:31.770Z,50.24
2022-08-30T13:39:01.902Z,49.56
2022-08-30T13:41:34.452Z,49.88
2022-08-30T13:44:11.314Z,50.24
2022-08-30T13:46:43.087Z,50.47
2022-08-30T13:52:20.525Z,50.00
2022-08-30T13:54:52.679Z,49.64
2022-08-30T14:00:18.386Z,48.77
2022-08-30T14:02:53.857Z,48.58
2022-08-30T14:06:09.860Z,48.86
2022-08-30T14:11:00.087Z,47.70
2022-08-30T14:13:30.128Z,47.56
2022-08-30T14:18:49.040Z,46.59
2022-08-30T14:21:17.113Z,46.21
2022-08-30T14:23:49.634Z,45.74
2022-08-30T14:26:27.904Z,45.91
2022-08-30T14:29:00.803Z,47.40
2022-08-30T14:31:28.658Z,47.61
2022-08-30T14:33:56.630Z,47.83
2022-08-30T14:36:24.371Z,47.94
2022-08-30T14:38:52.367Z,47.90
2022-08-30T14:41:20.229Z,47.85
2022-08-30T14:43:47.945Z,48.34
2022-08-30T14:46:15.756Z,48.46
2022-08-30T14:48:44.122Z,48.55
2022-08-30T14:51:20.527Z,48.53
2022-08-30T14:53:48.689Z,48.36
2022-08-30T14:56:19.617Z,48.75
2022-08-30T14:58:52.729Z,48.34
2022-08-30T15:01:21.201Z,48.19
2022-08-30T15:03:49.068Z,48.19
2022-08-30T15:06:19.101Z,47.56
2022-08-30T15:08:48.450Z,47.35
2022-08-30T15:11:19.846Z,47.11
2022-08-30T15:13:48.253Z,47.11
2022-08-30T15:16:25.444Z,47.53
2022-08-30T15:18:54.353Z,48.02
2022-08-30T15:21:49.789Z,48.40
2022-08-30T15:24:24.766Z,48.49
2022-08-30T15:26:58.094Z,48.68
2022-08-30T15:29:30.417Z,48.95
2022-08-30T15:32:00.096Z,49.67
2022-08-30T15:34:28.634Z,49.83
2022-08-30T15:36:57.233Z,49.70
2022-08-30T15:39:25.017Z,49.70
2022-08-30T15:41:57.287Z,49.71
2022-08-30T15:44:27.659Z,49.62
2022-08-30T15:46:55.542Z,49.51
2022-08-30T15:49:24.648Z,49.52
2022-08-30T15:51:53.985Z,48.98
2022-08-30T15:54:24.248Z,48.25
2022-08-30T15:57:00.144Z,47.88
2022-08-30T15:59:30.693Z,47.81
2022-08-30T16:01:59.496Z,47.85
2022-08-30T16:04:27.550Z,47.75
2022-08-30T16:06:55.468Z,47.85
2022-08-30T16:09:23.965Z,47.88
2022-08-30T16:11:51.818Z,48.32
2022-08-30T16:14:19.756Z,48.66
2022-08-30T16:16:47.591Z,48.38
2022-08-30T16:19:15.667Z,48.14
2022-08-30T16:21:44.829Z,48.33
2022-08-30T16:24:14.262Z,48.44
2022-08-30T16:26:43.515Z,48.71
2022-08-30T16:29:13.495Z,48.71
2022-08-30T16:31:44.765Z,48.57
2022-08-30T16:34:14.425Z,48.59
2022-08-30T16:36:42.182Z,48.61
2022-08-30T16:39:11.171Z,48.52
2022-08-30T16:41:40.025Z,48.52
2022-08-30T16:44:08.461Z,48.75
2022-08-30T16:46:37.250Z,48.81
2022-08-30T16:49:06.826Z,48.76
2022-08-30T16:51:37.433Z,48.80
2022-08-30T16:54:08.279Z,48.87
2022-08-30T16:56:37.827Z,48.87
2022-08-30T16:59:11.146Z,48.97
2022-08-30T17:01:39.923Z,49.38
2022-08-30T17:04:09.242Z,49.42
2022-08-30T17:06:38.000Z,49.42
2022-08-30T17:09:07.701Z,49.52
2022-08-30T17:11:40.314Z,49.83
2022-08-30T17:14:08.770Z,50.26
2022-08-30T17:16:38.356Z,50.63
2022-08-30T17:19:08.321Z,50.90
2022-08-30T17:21:36.157Z,51.17
2022-08-30T17:24:06.802Z,51.35
2022-08-30T17:26:37.634Z,51.77
2022-08-30T17:31:54.789Z,52.03
2022-08-30T17:34:23.757Z,52.11
2022-08-30T17:36:56.023Z,51.92
2022-08-30T17:39:24.610Z,51.80
2022-08-30T17:41:52.739Z,51.85
2022-08-30T17:44:25.928Z,51.94
2022-08-30T17:46:54.429Z,52.17
2022-08-30T17:49:22.937Z,52.69
2022-08-30T17:51:56.352Z,52.93
2022-08-30T17:54:25.909Z,53.12
2022-08-30T17:56:54.505Z,53.61
2022-08-30T17:59:25.061Z,54.23
2022-08-30T18:01:54.610Z,54.34
2022-08-30T18:04:24.762Z,54.58
2022-08-30T18:06:53.238Z,55.29
2022-08-30T18:09:21.822Z,55.54
2022-08-30T18:11:50.373Z,55.49
2022-08-30T18:14:18.432Z,55.39
2022-08-30T18:16:49.937Z,55.46
2022-08-30T18:19:22.231Z,55.90
2022-08-30T18:21:50.025Z,56.03
2022-08-30T18:24:18.143Z,56.06
2022-08-30T18:26:46.133Z,55.95
2022-08-30T18:29:13.935Z,56.47
2022-08-30T18:31:42.021Z,56.77
2022-08-30T18:34:12.369Z,57.37
2022-08-30T18:36:41.373Z,57.82
2022-08-30T18:39:09.466Z,58.38
2022-08-30T18:41:43.231Z,58.15
2022-08-30T18:44:27.409Z,58.23
2022-08-30T18:49:44.418Z,57.53
2022-08-30T18:52:12.332Z,57.33
2022-08-30T18:54:42.645Z,57.27
2022-08-30T18:57:10.832Z,57.71
2022-08-30T18:59:42.020Z,58.27
2022-08-30T19:02:17.523Z,58.96
2022-08-30T19:04:46.504Z,59.88
2022-08-30T19:07:17.745Z,60.41
2022-08-30T19:09:46.439Z,61.01
2022-08-30T19:12:14.782Z,60.89
2022-08-30T19:14:44.218Z,61.35
2022-08-30T19:17:12.119Z,61.69
2022-08-30T19:19:48.315Z,61.73
2022-08-30T19:22:17.220Z,61.80
2022-08-30T19:24:46.642Z,62.20
2022-08-30T19:27:14.351Z,62.54
2022-08-30T19:29:42.088Z,63.10
2022-08-30T19:32:12.328Z,63.63
2022-08-30T19:34:40.978Z,63.75
2022-08-30T19:37:09.102Z,63.71
2022-08-30T19:39:42.683Z,63.71
2022-08-30T19:42:10.544Z,63.96
2022-08-30T19:44:38.829Z,64.16
2022-08-30T19:47:07.500Z,64.59
2022-08-30T19:49:36.875Z,64.81
2022-08-30T19:52:04.964Z,64.95
2022-08-30T19:54:32.685Z,65.21
2022-08-30T19:57:00.787Z,65.50
2022-08-30T19:59:28.598Z,65.59
2022-08-30T20:01:57.899Z,65.71
2022-08-30T20:04:26.741Z,65.82
2022-08-30T20:06:54.674Z,66.09
2022-08-30T20:09:23.462Z,66.38
2022-08-30T20:11:52.575Z,67.40
2022-08-30T20:14:23.186Z,67.78
2022-08-30T20:16:52.495Z,67.89
2022-08-30T20:19:21.882Z,67.88
2022-08-30T20:21:55.456Z,67.41
2022-08-30T20:24:24.964Z,51.83
2022-08-30T20:24:29.517Z,58.13
2022-08-30T20:24:32.087Z,67.16
2022-08-30T20:27:00.049Z,66.29
2022-08-30T20:29:27.761Z,66.15
2022-08-30T20:31:55.427Z,65.48
2022-08-30T20:34:28.372Z,65.40
2022-08-30T20:36:57.609Z,65.72
2022-08-30T20:39:26.682Z,65.81
2022-08-30T20:41:54.596Z,65.95
2022-08-30T20:44:22.367Z,65.98
2022-08-30T20:46:51.815Z,65.78
2022-08-30T20:49:20.704Z,64.82
2022-08-30T20:51:52.950Z,63.00
2022-08-30T20:54:22.383Z,63.24
2022-08-30T20:56:51.149Z,62.96
2022-08-30T20:59:18.959Z,61.72
2022-08-30T21:01:48.782Z,60.94
2022-08-30T21:04:17.853Z,61.24
2022-08-30T21:06:45.647Z,61.37
2022-08-30T21:09:13.592Z,61.69
2022-08-30T21:11:42.243Z,61.86
2022-08-30T21:14:12.386Z,61.01
2022-08-30T21:16:40.460Z,61.44
2022-08-30T21:19:08.360Z,61.64
2022-08-30T21:21:36.107Z,61.44
2022-08-30T21:24:11.051Z,61.81
2022-08-30T21:26:40.993Z,61.49
2022-08-30T21:29:09.744Z,61.80
2022-08-30T21:31:40.684Z,61.86
2022-08-30T21:34:08.850Z,62.14
2022-08-30T21:36:48.054Z,62.27
2022-08-30T21:39:20.885Z,62.71
2022-08-30T21:41:50.306Z,63.13
2022-08-30T21:44:22.547Z,63.77
2022-08-30T21:46:53.282Z,63.87
2022-08-30T21:49:23.465Z,64.38
2022-08-30T21:51:53.742Z,64.45
2022-08-30T21:54:22.539Z,64.72
2022-08-30T21:56:51.899Z,65.12
2022-08-30T21:59:20.706Z,65.37
2022-08-30T22:01:49.702Z,65.76
2022-08-30T22:04:17.725Z,65.84
2022-08-30T22:06:51.233Z,65.94
2022-08-30T22:09:22.488Z,65.83
2022-08-30T22:11:50.897Z,66.26
2022-08-30T22:14:21.214Z,66.47
2022-08-30T22:16:49.885Z,66.28
2022-08-30T22:19:22.891Z,66.78
2022-08-30T22:21:51.569Z,66.98
2022-08-30T22:24:19.539Z,66.97
2022-08-30T22:26:47.810Z,67.21
2022-08-30T22:29:16.370Z,67.62
2022-08-30T22:31:44.434Z,67.55
2022-08-30T22:34:12.499Z,67.73
2022-08-30T22:36:40.352Z,67.87
2022-08-30T22:39:09.927Z,68.11
2022-08-30T22:41:38.947Z,68.34
2022-08-30T22:44:07.503Z,68.51
2022-08-30T22:46:36.900Z,68.63
2022-08-30T22:49:09.901Z,68.71
2022-08-30T22:51:38.468Z,69.29
2022-08-30T22:54:07.878Z,69.18
2022-08-30T22:56:37.863Z,69.53
2022-08-30T22:59:06.469Z,69.55
2022-08-30T23:01:38.030Z,69.88
2022-08-30T23:04:08.228Z,70.33
2022-08-30T23:06:36.010Z,70.45
2022-08-30T23:09:04.661Z,70.42
2022-08-30T23:11:33.320Z,70.75
2022-08-30T23:14:02.169Z,71.23
2022-08-30T23:16:30.488Z,71.17
2022-08-30T23:18:58.237Z,71.59
2022-08-30T23:21:29.918Z,71.69
2022-08-30T23:24:17.398Z,72.51
2022-08-30T23:27:04.963Z,72.88
2022-08-30T23:29:52.397Z,72.88
2022-08-30T23:32:39.201Z,73.24
2022-08-30T23:35:29.201Z,73.60
2022-08-30T23:38:17.248Z,74.28
2022-08-30T23:41:03.874Z,74.22
2022-08-30T23:43:50.267Z,75.71
2022-08-30T23:46:37.209Z,75.84
2022-08-30T23:49:24.282Z,76.45
2022-08-30T23:52:10.444Z,77.45
2022-08-30T23:54:57.431Z,77.70
2022-08-30T23:57:45.115Z,78.90
